sensor_id;sensor_type;location;lat;lon;timestamp;P1;durP1;ratioP1;P2;durP2;ratioP2
26080;SDS011;13991;51.174;4.438;2022-12-19T00:02:05;62.63;;;19.50;;
26080;SDS011;13991;51.174;4.438;2022-12-19T00:04:31;57.87;;;19.50;;
26080;SDS011;13991;51.174;4.438;2022-12-19T00:06:57;49.20;;;18.47;;
26080;SDS011;13991;51.174;4.438;2022-12-19T00:09:24;59.17;;;18.70;;
26080;SDS011;13991;51.174;4.438;2022-12-19T00:11:50;57.50;;;18.57;;
26080;SDS011;13991;51.174;4.438;2022-12-19T00:14:16;56.17;;;18.93;;
26080;SDS011;13991;51.174;4.438;2022-12-19T00:16:42;50.13;;;17.10;;
26080;SDS011;13991;51.174;4.438;2022-12-19T00:19:08;51.97;;;16.20;;
26080;SDS011;13991;51.174;4.438;2022-12-19T00:21:34;43.37;;;17.00;;
26080;SDS011;13991;51.174;4.438;2022-12-19T00:24:01;50.60;;;17.67;;
26080;SDS011;13991;51.174;4.438;2022-12-19T00:26:29;58.53;;;15.43;;
26080;SDS011;13991;51.174;4.438;2022-12-19T00:28:57;53.47;;;16.97;;
26080;SDS011;13991;51.174;4.438;2022-12-19T00:31:26;45.13;;;16.37;;
26080;SDS011;13991;51.174;4.438;2022-12-19T00:33:56;47.70;;;15.50;;
26080;SDS011;13991;51.174;4.438;2022-12-19T00:36:23;46.50;;;15.97;;
26080;SDS011;13991;51.174;4.438;2022-12-19T00:38:51;44.47;;;15.60;;
26080;SDS011;13991;51.174;4.438;2022-12-19T00:43:44;44.00;;;15.43;;
26080;SDS011;13991;51.174;4.438;2022-12-19T00:46:12;42.90;;;14.80;;
26080;SDS011;13991;51.174;4.438;2022-12-19T00:48:39;43.90;;;15.77;;
26080;SDS011;13991;51.174;4.438;2022-12-19T00:51:07;52.13;;;16.50;;
26080;SDS011;13991;51.174;4.438;2022-12-19T00:53:40;57.67;;;15.80;;
26080;SDS011;13991;51.174;4.438;2022-12-19T00:56:07;47.20;;;15.13;;
26080;SDS011;13991;51.174;4.438;2022-12-19T00:58:35;41.87;;;15.80;;
26080;SDS011;13991;51.174;4.438;2022-12-19T01:01:05;51.30;;;15.60;;
26080;SDS011;13991;51.174;4.438;2022-12-19T01:03:36;45.77;;;15.87;;
26080;SDS011;13991;51.174;4.438;2022-12-19T01:06:02;40.87;;;15.27;;
26080;SDS011;13991;51.174;4.438;2022-12-19T01:08:29;41.83;;;15.37;;
26080;SDS011;13991;51.174;4.438;2022-12-19T01:10:54;41.33;;;15.23;;
26080;SDS011;13991;51.174;4.438;2022-12-19T01:13:20;44.47;;;16.87;;
26080;SDS011;13991;51.174;4.438;2022-12-19T01:15:51;47.83;;;14.30;;
26080;SDS011;13991;51.174;4.438;2022-12-19T01:18:16;45.07;;;15.33;;
26080;SDS011;13991;51.174;4.438;2022-12-19T01:20:43;44.27;;;14.40;;
26080;SDS011;13991;51.174;4.438;2022-12-19T01:23:13;46.63;;;15.67;;
26080;SDS011;13991;51.174;4.438;2022-12-19T01:25:40;45.37;;;14.67;;
26080;SDS011;13991;51.174;4.438;2022-12-19T01:28:09;45.37;;;15.33;;
26080;SDS011;13991;51.174;4.438;2022-12-19T01:30:38;40.07;;;14.53;;
26080;SDS011;13991;51.174;4.438;2022-12-19T01:33:05;45.07;;;15.83;;
26080;SDS011;13991;51.174;4.438;2022-12-19T01:35:32;55.73;;;15.80;;
26080;SDS011;13991;51.174;4.438;2022-12-19T01:37:58;51.07;;;15.50;;
26080;SDS011;13991;51.174;4.438;2022-12-19T01:40:24;43.30;;;14.27;;
26080;SDS011;13991;51.174;4.438;2022-12-19T01:42:50;44.40;;;14.70;;
26080;SDS011;13991;51.174;4.438;2022-12-19T01:47:45;46.40;;;15.30;;
26080;SDS011;13991;51.174;4.438;2022-12-19T01:50:19;41.50;;;13.70;;
26080;SDS011;13991;51.174;4.438;2022-12-19T01:52:51;43.57;;;13.73;;
26080;SDS011;13991;51.174;4.438;2022-12-19T01:55:17;50.60;;;13.57;;
26080;SDS011;13991;51.174;4.438;2022-12-19T01:57:44;45.10;;;14.90;;
26080;SDS011;13991;51.174;4.438;2022-12-19T02:00:10;38.80;;;14.33;;
26080;SDS011;13991;51.174;4.438;2022-12-19T02:02:37;38.97;;;12.77;;
26080;SDS011;13991;51.174;4.438;2022-12-19T02:05:07;36.30;;;12.87;;
26080;SDS011;13991;51.174;4.438;2022-12-19T02:07:33;32.30;;;12.83;;
26080;SDS011;13991;51.174;4.438;2022-12-19T02:10:01;39.50;;;13.77;;
26080;SDS011;13991;51.174;4.438;2022-12-19T02:12:28;38.87;;;12.63;;
26080;SDS011;13991;51.174;4.438;2022-12-19T02:14:57;37.07;;;11.67;;
26080;SDS011;13991;51.174;4.438;2022-12-19T02:17:30;43.90;;;13.63;;
26080;SDS011;13991;51.174;4.438;2022-12-19T02:20:23;35.03;;;12.43;;
26080;SDS011;13991;51.174;4.438;2022-12-19T02:31:48;32.60;;;11.63;;
26080;SDS011;13991;51.174;4.438;2022-12-19T02:34:20;38.73;;;11.67;;
26080;SDS011;13991;51.174;4.438;2022-12-19T02:36:57;32.97;;;11.00;;
26080;SDS011;13991;51.174;4.438;2022-12-19T02:39:42;26.87;;;11.40;;
26080;SDS011;13991;51.174;4.438;2022-12-19T02:42:33;37.07;;;11.57;;
26080;SDS011;13991;51.174;4.438;2022-12-19T02:45:02;32.70;;;10.73;;
26080;SDS011;13991;51.174;4.438;2022-12-19T02:47:30;28.67;;;11.23;;
26080;SDS011;13991;51.174;4.438;2022-12-19T02:49:58;28.27;;;10.83;;
26080;SDS011;13991;51.174;4.438;2022-12-19T02:54:49;30.30;;;11.13;;
26080;SDS011;13991;51.174;4.438;2022-12-19T03:02:18;32.37;;;11.00;;
26080;SDS011;13991;51.174;4.438;2022-12-19T03:05:05;27.97;;;10.17;;
26080;SDS011;13991;51.174;4.438;2022-12-19T03:07:42;31.70;;;11.30;;
26080;SDS011;13991;51.174;4.438;2022-12-19T03:10:15;29.17;;;10.80;;
26080;SDS011;13991;51.174;4.438;2022-12-19T03:13:08;24.00;;;9.90;;
26080;SDS011;13991;51.174;4.438;2022-12-19T03:15:39;31.37;;;10.77;;
26080;SDS011;13991;51.174;4.438;2022-12-19T03:18:05;27.10;;;10.50;;
26080;SDS011;13991;51.174;4.438;2022-12-19T03:20:49;27.40;;;9.53;;
26080;SDS011;13991;51.174;4.438;2022-12-19T03:23:18;25.07;;;10.00;;
26080;SDS011;13991;51.174;4.438;2022-12-19T03:25:46;33.57;;;11.57;;
26080;SDS011;13991;51.174;4.438;2022-12-19T03:28:22;22.43;;;10.57;;
26080;SDS011;13991;51.174;4.438;2022-12-19T03:31:30;24.57;;;9.97;;
26080;SDS011;13991;51.174;4.438;2022-12-19T03:34:10;25.87;;;10.70;;
26080;SDS011;13991;51.174;4.438;2022-12-19T03:36:43;26.80;;;10.90;;
26080;SDS011;13991;51.174;4.438;2022-12-19T03:39:12;32.97;;;10.67;;
26080;SDS011;13991;51.174;4.438;2022-12-19T03:41:41;29.23;;;10.57;;
26080;SDS011;13991;51.174;4.438;2022-12-19T03:44:27;24.13;;;10.80;;
26080;SDS011;13991;51.174;4.438;2022-12-19T03:47:00;28.80;;;10.77;;
26080;SDS011;13991;51.174;4.438;2022-12-19T03:49:53;22.40;;;10.73;;
26080;SDS011;13991;51.174;4.438;2022-12-19T03:52:23;28.90;;;9.77;;
26080;SDS011;13991;51.174;4.438;2022-12-19T03:55:20;27.03;;;10.50;;
26080;SDS011;13991;51.174;4.438;2022-12-19T04:00:45;22.87;;;10.47;;
26080;SDS011;13991;51.174;4.438;2022-12-19T04:03:12;24.50;;;10.33;;
26080;SDS011;13991;51.174;4.438;2022-12-19T04:05:40;28.07;;;10.37;;
26080;SDS011;13991;51.174;4.438;2022-12-19T04:08:07;30.73;;;11.37;;
26080;SDS011;13991;51.174;4.438;2022-12-19T04:10:37;30.50;;;9.73;;
26080;SDS011;13991;51.174;4.438;2022-12-19T04:13:11;23.73;;;9.87;;
26080;SDS011;13991;51.174;4.438;2022-12-19T04:18:16;23.30;;;10.27;;
26080;SDS011;13991;51.174;4.438;2022-12-19T04:20:44;22.07;;;10.20;;
26080;SDS011;13991;51.174;4.438;2022-12-19T04:23:29;25.33;;;9.77;;
26080;SDS011;13991;51.174;4.438;2022-12-19T04:26:02;25.90;;;10.27;;
26080;SDS011;13991;51.174;4.438;2022-12-19T04:31:04;25.80;;;10.20;;
26080;SDS011;13991;51.174;4.438;2022-12-19T04:33:30;22.87;;;9.50;;
26080;SDS011;13991;51.174;4.438;2022-12-19T04:35:56;30.87;;;9.90;;
26080;SDS011;13991;51.174;4.438;2022-12-19T04:38:22;29.40;;;9.97;;
26080;SDS011;13991;51.174;4.438;2022-12-19T04:40:47;21.33;;;9.47;;
26080;SDS011;13991;51.174;4.438;2022-12-19T04:43:13;22.30;;;10.27;;
26080;SDS011;13991;51.174;4.438;2022-12-19T04:45:39;21.70;;;9.47;;
26080;SDS011;13991;51.174;4.438;2022-12-19T04:48:07;21.70;;;9.67;;
26080;SDS011;13991;51.174;4.438;2022-12-19T04:50:33;21.40;;;9.47;;
26080;SDS011;13991;51.174;4.438;2022-12-19T04:52:59;17.03;;;8.67;;
26080;SDS011;13991;51.174;4.438;2022-12-19T04:55:26;24.80;;;9.50;;
26080;SDS011;13991;51.174;4.438;2022-12-19T04:57:52;31.67;;;9.80;;
26080;SDS011;13991;51.174;4.438;2022-12-19T05:00:18;16.67;;;8.10;;
26080;SDS011;13991;51.174;4.438;2022-12-19T05:02:44;22.43;;;8.20;;
26080;SDS011;13991;51.174;4.438;2022-12-19T05:05:09;19.07;;;9.10;;
26080;SDS011;13991;51.174;4.438;2022-12-19T05:07:35;20.30;;;8.37;;
26080;SDS011;13991;51.174;4.438;2022-12-19T05:10:01;18.93;;;8.80;;
26080;SDS011;13991;51.174;4.438;2022-12-19T05:12:27;20.80;;;8.83;;
26080;SDS011;13991;51.174;4.438;2022-12-19T05:14:53;25.40;;;8.50;;
26080;SDS011;13991;51.174;4.438;2022-12-19T05:17:19;23.77;;;11.02;;
26080;SDS011;13991;51.174;4.438;2022-12-19T05:19:45;26.97;;;9.00;;
26080;SDS011;13991;51.174;4.438;2022-12-19T05:22:11;22.03;;;8.37;;
26080;SDS011;13991;51.174;4.438;2022-12-19T05:24:36;15.67;;;8.03;;
26080;SDS011;13991;51.174;4.438;2022-12-19T05:27:02;17.90;;;8.50;;
26080;SDS011;13991;51.174;4.438;2022-12-19T05:29:28;16.57;;;7.93;;
26080;SDS011;13991;51.174;4.438;2022-12-19T05:31:53;20.73;;;8.47;;
26080;SDS011;13991;51.174;4.438;2022-12-19T05:34:19;20.57;;;7.53;;
26080;SDS011;13991;51.174;4.438;2022-12-19T05:36:45;17.17;;;7.90;;
26080;SDS011;13991;51.174;4.438;2022-12-19T05:39:10;18.27;;;8.07;;
26080;SDS011;13991;51.174;4.438;2022-12-19T05:41:36;17.67;;;8.40;;
26080;SDS011;13991;51.174;4.438;2022-12-19T05:44:02;20.70;;;8.10;;
26080;SDS011;13991;51.174;4.438;2022-12-19T05:46:27;20.57;;;8.43;;
26080;SDS011;13991;51.174;4.438;2022-12-19T05:48:53;21.20;;;7.83;;
26080;SDS011;13991;51.174;4.438;2022-12-19T05:51:19;25.25;;;10.63;;
26080;SDS011;13991;51.174;4.438;2022-12-19T05:53:45;18.03;;;8.60;;
26080;SDS011;13991;51.174;4.438;2022-12-19T05:56:12;18.93;;;8.13;;
26080;SDS011;13991;51.174;4.438;2022-12-19T05:58:42;16.87;;;8.17;;
26080;SDS011;13991;51.174;4.438;2022-12-19T06:03:39;23.33;;;7.03;;
26080;SDS011;13991;51.174;4.438;2022-12-19T06:06:06;19.10;;;8.07;;
26080;SDS011;13991;51.174;4.438;2022-12-19T06:08:38;16.73;;;7.20;;
26080;SDS011;13991;51.174;4.438;2022-12-19T06:11:05;23.70;;;8.13;;
26080;SDS011;13991;51.174;4.438;2022-12-19T06:13:32;12.43;;;7.10;;
26080;SDS011;13991;51.174;4.438;2022-12-19T06:18:32;17.20;;;6.97;;
26080;SDS011;13991;51.174;4.438;2022-12-19T06:21:01;15.93;;;7.27;;
26080;SDS011;13991;51.174;4.438;2022-12-19T06:23:29;26.40;;;10.93;;
26080;SDS011;13991;51.174;4.438;2022-12-19T06:25:56;18.77;;;7.33;;
26080;SDS011;13991;51.174;4.438;2022-12-19T06:28:23;17.63;;;6.97;;
26080;SDS011;13991;51.174;4.438;2022-12-19T06:30:50;15.53;;;7.97;;
26080;SDS011;13991;51.174;4.438;2022-12-19T06:33:19;16.87;;;7.70;;
26080;SDS011;13991;51.174;4.438;2022-12-19T06:35:44;14.97;;;5.97;;
26080;SDS011;13991;51.174;4.438;2022-12-19T06:38:10;19.23;;;7.60;;
26080;SDS011;13991;51.174;4.438;2022-12-19T06:40:39;18.27;;;6.40;;
26080;SDS011;13991;51.174;4.438;2022-12-19T06:43:27;15.37;;;6.90;;
26080;SDS011;13991;51.174;4.438;2022-12-19T06:45:53;14.70;;;6.60;;
26080;SDS011;13991;51.174;4.438;2022-12-19T06:48:22;21.27;;;6.57;;
26080;SDS011;13991;51.174;4.438;2022-12-19T06:50:50;19.20;;;7.13;;
26080;SDS011;13991;51.174;4.438;2022-12-19T06:53:16;13.20;;;5.70;;
26080;SDS011;13991;51.174;4.438;2022-12-19T06:55:45;16.53;;;6.23;;
26080;SDS011;13991;51.174;4.438;2022-12-19T06:58:11;13.27;;;6.67;;
26080;SDS011;13991;51.174;4.438;2022-12-19T07:00:37;14.30;;;6.63;;
26080;SDS011;13991;51.174;4.438;2022-12-19T07:03:03;14.70;;;6.63;;
26080;SDS011;13991;51.174;4.438;2022-12-19T07:05:33;18.80;;;6.80;;
26080;SDS011;13991;51.174;4.438;2022-12-19T07:07:58;20.13;;;6.83;;
26080;SDS011;13991;51.174;4.438;2022-12-19T07:10:24;16.33;;;6.10;;
26080;SDS011;13991;51.174;4.438;2022-12-19T07:12:53;14.60;;;6.20;;
26080;SDS011;13991;51.174;4.438;2022-12-19T07:15:19;15.87;;;6.13;;
26080;SDS011;13991;51.174;4.438;2022-12-19T07:17:44;16.33;;;6.00;;
26080;SDS011;13991;51.174;4.438;2022-12-19T07:20:10;11.17;;;5.47;;
26080;SDS011;13991;51.174;4.438;2022-12-19T07:22:37;12.53;;;5.80;;
26080;SDS011;13991;51.174;4.438;2022-12-19T07:25:04;12.23;;;6.07;;
26080;SDS011;13991;51.174;4.438;2022-12-19T07:27:30;13.83;;;5.93;;
26080;SDS011;13991;51.174;4.438;2022-12-19T07:29:56;16.53;;;5.60;;
26080;SDS011;13991;51.174;4.438;2022-12-19T07:32:22;14.73;;;5.23;;
26080;SDS011;13991;51.174;4.438;2022-12-19T07:34:48;16.50;;;6.10;;
26080;SDS011;13991;51.174;4.438;2022-12-19T07:37:13;11.70;;;5.30;;
26080;SDS011;13991;51.174;4.438;2022-12-19T07:39:39;14.20;;;5.97;;
26080;SDS011;13991;51.174;4.438;2022-12-19T07:42:05;23.07;;;7.80;;
26080;SDS011;13991;51.174;4.438;2022-12-19T07:44:30;17.03;;;5.70;;
26080;SDS011;13991;51.174;4.438;2022-12-19T07:46:56;11.57;;;5.40;;
26080;SDS011;13991;51.174;4.438;2022-12-19T07:49:21;18.70;;;6.03;;
26080;SDS011;13991;51.174;4.438;2022-12-19T07:51:47;12.17;;;5.70;;
26080;SDS011;13991;51.174;4.438;2022-12-19T07:54:13;10.37;;;5.60;;
26080;SDS011;13991;51.174;4.438;2022-12-19T07:56:38;14.63;;;5.40;;
26080;SDS011;13991;51.174;4.438;2022-12-19T07:59:04;16.07;;;7.13;;
26080;SDS011;13991;51.174;4.438;2022-12-19T08:01:30;10.43;;;4.93;;
26080;SDS011;13991;51.174;4.438;2022-12-19T08:03:55;11.40;;;4.80;;
26080;SDS011;13991;51.174;4.438;2022-12-19T08:06:22;11.43;;;4.80;;
26080;SDS011;13991;51.174;4.438;2022-12-19T08:08:48;15.13;;;5.37;;
26080;SDS011;13991;51.174;4.438;2022-12-19T08:11:15;11.40;;;4.80;;
26080;SDS011;13991;51.174;4.438;2022-12-19T08:13:43;8.93;;;4.47;;
26080;SDS011;13991;51.174;4.438;2022-12-19T08:16:09;13.80;;;5.57;;
26080;SDS011;13991;51.174;4.438;2022-12-19T08:18:34;9.40;;;5.07;;
26080;SDS011;13991;51.174;4.438;2022-12-19T08:21:01;10.97;;;4.90;;
26080;SDS011;13991;51.174;4.438;2022-12-19T08:23:27;10.60;;;4.37;;
26080;SDS011;13991;51.174;4.438;2022-12-19T08:26:03;8.97;;;4.20;;
26080;SDS011;13991;51.174;4.438;2022-12-19T08:28:31;8.47;;;4.30;;
26080;SDS011;13991;51.174;4.438;2022-12-19T08:31:08;10.67;;;4.97;;
26080;SDS011;13991;51.174;4.438;2022-12-19T08:33:38;12.33;;;4.83;;
26080;SDS011;13991;51.174;4.438;2022-12-19T08:36:05;8.63;;;4.33;;
26080;SDS011;13991;51.174;4.438;2022-12-19T08:38:32;9.70;;;4.23;;
26080;SDS011;13991;51.174;4.438;2022-12-19T08:40:58;13.30;;;4.77;;
26080;SDS011;13991;51.174;4.438;2022-12-19T08:43:24;12.83;;;4.10;;
26080;SDS011;13991;51.174;4.438;2022-12-19T08:45:51;13.13;;;4.17;;
26080;SDS011;13991;51.174;4.438;2022-12-19T08:48:16;11.70;;;4.40;;
26080;SDS011;13991;51.174;4.438;2022-12-19T08:50:49;18.47;;;5.10;;
26080;SDS011;13991;51.174;4.438;2022-12-19T08:53:20;9.40;;;3.97;;
26080;SDS011;13991;51.174;4.438;2022-12-19T08:55:47;12.30;;;4.07;;
26080;SDS011;13991;51.174;4.438;2022-12-19T08:58:19;9.37;;;4.63;;
26080;SDS011;13991;51.174;4.438;2022-12-19T09:00:44;14.57;;;4.47;;
26080;SDS011;13991;51.174;4.438;2022-12-19T09:03:10;7.30;;;3.97;;
26080;SDS011;13991;51.174;4.438;2022-12-19T09:05:37;12.40;;;3.60;;
26080;SDS011;13991;51.174;4.438;2022-12-19T09:08:03;9.47;;;3.87;;
26080;SDS011;13991;51.174;4.438;2022-12-19T09:10:28;8.37;;;3.40;;
26080;SDS011;13991;51.174;4.438;2022-12-19T09:12:55;11.20;;;3.83;;
26080;SDS011;13991;51.174;4.438;2022-12-19T09:15:21;8.20;;;3.60;;
26080;SDS011;13991;51.174;4.438;2022-12-19T09:17:47;12.40;;;3.60;;
26080;SDS011;13991;51.174;4.438;2022-12-19T09:20:12;6.43;;;3.33;;
26080;SDS011;13991;51.174;4.438;2022-12-19T09:22:38;8.90;;;4.20;;
26080;SDS011;13991;51.174;4.438;2022-12-19T09:25:04;7.83;;;3.53;;
26080;SDS011;13991;51.174;4.438;2022-12-19T09:27:30;7.83;;;3.00;;
26080;SDS011;13991;51.174;4.438;2022-12-19T09:29:55;8.73;;;3.13;;
26080;SDS011;13991;51.174;4.438;2022-12-19T09:32:21;11.93;;;3.63;;
26080;SDS011;13991;51.174;4.438;2022-12-19T09:34:47;7.47;;;3.00;;
26080;SDS011;13991;51.174;4.438;2022-12-19T09:37:12;9.20;;;3.57;;
26080;SDS011;13991;51.174;4.438;2022-12-19T09:39:38;10.13;;;3.17;;
26080;SDS011;13991;51.174;4.438;2022-12-19T09:42:20;12.90;;;3.43;;
26080;SDS011;13991;51.174;4.438;2022-12-19T09:48:13;10.90;;;3.13;;
26080;SDS011;13991;51.174;4.438;2022-12-19T09:53:32;8.37;;;2.63;;
26080;SDS011;13991;51.174;4.438;2022-12-19T09:56:04;10.40;;;3.20;;
26080;SDS011;13991;51.174;4.438;2022-12-19T09:58:42;7.50;;;3.10;;
26080;SDS011;13991;51.174;4.438;2022-12-19T10:01:18;7.43;;;3.50;;
26080;SDS011;13991;51.174;4.438;2022-12-19T10:03:52;7.57;;;3.50;;
26080;SDS011;13991;51.174;4.438;2022-12-19T10:06:25;8.43;;;3.53;;
26080;SDS011;13991;51.174;4.438;2022-12-19T10:08:51;23.50;;;3.70;;
26080;SDS011;13991;51.174;4.438;2022-12-19T10:13:52;6.10;;;3.60;;
26080;SDS011;13991;51.174;4.438;2022-12-19T10:20:01;9.17;;;4.17;;
26080;SDS011;13991;51.174;4.438;2022-12-19T10:27:53;16.43;;;4.30;;
26080;SDS011;13991;51.174;4.438;2022-12-19T10:30:49;8.70;;;3.73;;
26080;SDS011;13991;51.174;4.438;2022-12-19T10:33:28;9.73;;;4.20;;
26080;SDS011;13991;51.174;4.438;2022-12-19T10:36:06;8.30;;;3.80;;
26080;SDS011;13991;51.174;4.438;2022-12-19T10:38:39;6.90;;;4.13;;
26080;SDS011;13991;51.174;4.438;2022-12-19T10:41:18;11.13;;;3.83;;
26080;SDS011;13991;51.174;4.438;2022-12-19T10:49:16;12.80;;;3.63;;
26080;SDS011;13991;51.174;4.438;2022-12-19T11:00:05;7.53;;;3.40;;
26080;SDS011;13991;51.174;4.438;2022-12-19T11:02:40;6.83;;;2.90;;
26080;SDS011;13991;51.174;4.438;2022-12-19T11:05:46;13.07;;;3.77;;
26080;SDS011;13991;51.174;4.438;2022-12-19T11:10:43;5.50;;;3.60;;
26080;SDS011;13991;51.174;4.438;2022-12-19T11:16:06;8.13;;;3.10;;
26080;SDS011;13991;51.174;4.438;2022-12-19T11:21:04;12.27;;;3.10;;
26080;SDS011;13991;51.174;4.438;2022-12-19T11:23:31;8.37;;;2.83;;
26080;SDS011;13991;51.174;4.438;2022-12-19T11:25:59;9.30;;;2.93;;
26080;SDS011;13991;51.174;4.438;2022-12-19T11:28:33;8.27;;;3.27;;
26080;SDS011;13991;51.174;4.438;2022-12-19T11:33:45;8.93;;;2.70;;
26080;SDS011;13991;51.174;4.438;2022-12-19T11:36:33;9.50;;;2.43;;
26080;SDS011;13991;51.174;4.438;2022-12-19T11:39:20;13.87;;;2.37;;
26080;SDS011;13991;51.174;4.438;2022-12-19T11:44:43;5.53;;;2.10;;
26080;SDS011;13991;51.174;4.438;2022-12-19T11:50:13;9.40;;;1.87;;
26080;SDS011;13991;51.174;4.438;2022-12-19T11:55:57;4.83;;;2.37;;
26080;SDS011;13991;51.174;4.438;2022-12-19T11:58:31;8.73;;;2.83;;
26080;SDS011;13991;51.174;4.438;2022-12-19T12:01:01;4.80;;;2.30;;
26080;SDS011;13991;51.174;4.438;2022-12-19T12:05:59;5.93;;;2.47;;
26080;SDS011;13991;51.174;4.438;2022-12-19T12:11:29;5.27;;;2.53;;
26080;SDS011;13991;51.174;4.438;2022-12-19T12:14:21;10.50;;;2.30;;
26080;SDS011;13991;51.174;4.438;2022-12-19T12:29:50;8.77;;;2.03;;
26080;SDS011;13991;51.174;4.438;2022-12-19T12:35:22;7.00;;;1.97;;
26080;SDS011;13991;51.174;4.438;2022-12-19T12:38:19;5.43;;;2.00;;
26080;SDS011;13991;51.174;4.438;2022-12-19T12:46:30;6.93;;;1.93;;
26080;SDS011;13991;51.174;4.438;2022-12-19T12:49:03;7.53;;;2.57;;
26080;SDS011;13991;51.174;4.438;2022-12-19T12:51:39;7.17;;;2.30;;
26080;SDS011;13991;51.174;4.438;2022-12-19T12:54:06;13.23;;;2.00;;
26080;SDS011;13991;51.174;4.438;2022-12-19T12:56:36;11.43;;;2.27;;
26080;SDS011;13991;51.174;4.438;2022-12-19T12:59:05;5.60;;;1.70;;
26080;SDS011;13991;51.174;4.438;2022-12-19T13:01:43;10.73;;;2.60;;
26080;SDS011;13991;51.174;4.438;2022-12-19T13:04:19;5.67;;;2.10;;
26080;SDS011;13991;51.174;4.438;2022-12-19T13:11:45;6.17;;;1.87;;
26080;SDS011;13991;51.174;4.438;2022-12-19T13:19:30;3.20;;;1.87;;
26080;SDS011;13991;51.174;4.438;2022-12-19T13:24:51;4.87;;;2.23;;
26080;SDS011;13991;51.174;4.438;2022-12-19T13:32:25;4.37;;;2.23;;
26080;SDS011;13991;51.174;4.438;2022-12-19T13:34:57;4.23;;;2.23;;
26080;SDS011;13991;51.174;4.438;2022-12-19T13:38:14;5.10;;;2.23;;
26080;SDS011;13991;51.174;4.438;2022-12-19T13:40:33;6.60;;;2.23;;
26080;SDS011;13991;51.174;4.438;2022-12-19T13:43:38;2.83;;;1.97;;
26080;SDS011;13991;51.174;4.438;2022-12-19T13:49:07;4.67;;;2.10;;
26080;SDS011;13991;51.174;4.438;2022-12-19T13:51:56;6.73;;;2.17;;
26080;SDS011;13991;51.174;4.438;2022-12-19T13:54:26;7.20;;;2.30;;
26080;SDS011;13991;51.174;4.438;2022-12-19T13:56:56;8.57;;;2.43;;
26080;SDS011;13991;51.174;4.438;2022-12-19T13:59:23;11.63;;;2.17;;
26080;SDS011;13991;51.174;4.438;2022-12-19T14:01:51;4.27;;;2.30;;
26080;SDS011;13991;51.174;4.438;2022-12-19T14:06:46;4.53;;;1.80;;
26080;SDS011;13991;51.174;4.438;2022-12-19T14:09:19;5.63;;;2.00;;
26080;SDS011;13991;51.174;4.438;2022-12-19T14:11:53;5.73;;;2.30;;
26080;SDS011;13991;51.174;4.438;2022-12-19T14:14:22;13.20;;;2.17;;
26080;SDS011;13991;51.174;4.438;2022-12-19T14:17:07;12.20;;;2.07;;
26080;SDS011;13991;51.174;4.438;2022-12-19T14:19:39;6.57;;;1.70;;
26080;SDS011;13991;51.174;4.438;2022-12-19T14:22:40;4.30;;;1.70;;
26080;SDS011;13991;51.174;4.438;2022-12-19T14:24:59;3.43;;;1.70;;
26080;SDS011;13991;51.174;4.438;2022-12-19T14:27:44;4.63;;;1.97;;
26080;SDS011;13991;51.174;4.438;2022-12-19T14:30:19;5.77;;;1.97;;
26080;SDS011;13991;51.174;4.438;2022-12-19T14:32:47;7.00;;;1.20;;
26080;SDS011;13991;51.174;4.438;2022-12-19T14:35:20;5.50;;;1.97;;
26080;SDS011;13991;51.174;4.438;2022-12-19T14:37:48;3.20;;;1.53;;
26080;SDS011;13991;51.174;4.438;2022-12-19T14:40:32;10.27;;;1.80;;
26080;SDS011;13991;51.174;4.438;2022-12-19T14:43:03;6.50;;;1.93;;
26080;SDS011;13991;51.174;4.438;2022-12-19T14:45:52;4.40;;;1.92;;
26080;SDS011;13991;51.174;4.438;2022-12-19T14:48:25;7.03;;;2.43;;
26080;SDS011;13991;51.174;4.438;2022-12-19T14:51:10;6.10;;;2.00;;
26080;SDS011;13991;51.174;4.438;2022-12-19T14:53:38;5.57;;;2.53;;
26080;SDS011;13991;51.174;4.438;2022-12-19T14:56:12;12.83;;;2.17;;
26080;SDS011;13991;51.174;4.438;2022-12-19T14:58:45;7.90;;;2.47;;
26080;SDS011;13991;51.174;4.438;2022-12-19T15:01:25;10.90;;;1.93;;
26080;SDS011;13991;51.174;4.438;2022-12-19T15:03:56;6.20;;;2.58;;
26080;SDS011;13991;51.174;4.438;2022-12-19T15:06:25;5.60;;;2.13;;
26080;SDS011;13991;51.174;4.438;2022-12-19T15:09:01;14.13;;;2.47;;
26080;SDS011;13991;51.174;4.438;2022-12-19T15:11:42;4.50;;;1.83;;
26080;SDS011;13991;51.174;4.438;2022-12-19T15:14:38;10.10;;;1.87;;
26080;SDS011;13991;51.174;4.438;2022-12-19T15:17:16;6.33;;;1.90;;
26080;SDS011;13991;51.174;4.438;2022-12-19T15:19:47;6.00;;;2.50;;
26080;SDS011;13991;51.174;4.438;2022-12-19T15:22:13;4.73;;;2.17;;
26080;SDS011;13991;51.174;4.438;2022-12-19T15:24:39;8.93;;;2.30;;
26080;SDS011;13991;51.174;4.438;2022-12-19T15:27:07;6.60;;;2.03;;
26080;SDS011;13991;51.174;4.438;2022-12-19T15:29:39;8.83;;;2.27;;
26080;SDS011;13991;51.174;4.438;2022-12-19T15:32:05;8.50;;;2.10;;
26080;SDS011;13991;51.174;4.438;2022-12-19T15:34:33;7.20;;;2.00;;
26080;SDS011;13991;51.174;4.438;2022-12-19T15:37:00;7.73;;;2.20;;
26080;SDS011;13991;51.174;4.438;2022-12-19T15:39:26;8.47;;;2.03;;
26080;SDS011;13991;51.174;4.438;2022-12-19T15:41:54;8.70;;;2.77;;
26080;SDS011;13991;51.174;4.438;2022-12-19T15:44:29;8.90;;;2.10;;
26080;SDS011;13991;51.174;4.438;2022-12-19T15:46:57;7.93;;;2.40;;
26080;SDS011;13991;51.174;4.438;2022-12-19T15:49:24;9.00;;;2.40;;
26080;SDS011;13991;51.174;4.438;2022-12-19T15:51:50;5.70;;;2.10;;
26080;SDS011;13991;51.174;4.438;2022-12-19T15:54:16;8.13;;;2.47;;
26080;SDS011;13991;51.174;4.438;2022-12-19T15:56:46;5.87;;;2.20;;
26080;SDS011;13991;51.174;4.438;2022-12-19T15:59:26;11.93;;;2.80;;
26080;SDS011;13991;51.174;4.438;2022-12-19T16:01:56;5.53;;;2.43;;
26080;SDS011;13991;51.174;4.438;2022-12-19T16:04:22;12.03;;;2.40;;
26080;SDS011;13991;51.174;4.438;2022-12-19T16:06:49;10.57;;;2.33;;
26080;SDS011;13991;51.174;4.438;2022-12-19T16:09:22;5.67;;;2.27;;
26080;SDS011;13991;51.174;4.438;2022-12-19T16:11:50;11.93;;;3.10;;
26080;SDS011;13991;51.174;4.438;2022-12-19T16:14:17;6.13;;;2.50;;
26080;SDS011;13991;51.174;4.438;2022-12-19T16:16:44;9.67;;;2.40;;
26080;SDS011;13991;51.174;4.438;2022-12-19T16:19:28;4.83;;;2.50;;
26080;SDS011;13991;51.174;4.438;2022-12-19T16:21:56;5.77;;;2.47;;
26080;SDS011;13991;51.174;4.438;2022-12-19T16:24:22;3.97;;;2.10;;
26080;SDS011;13991;51.174;4.438;2022-12-19T16:26:56;8.43;;;2.03;;
26080;SDS011;13991;51.174;4.438;2022-12-19T16:29:23;10.10;;;2.30;;
26080;SDS011;13991;51.174;4.438;2022-12-19T16:31:50;8.73;;;2.50;;
26080;SDS011;13991;51.174;4.438;2022-12-19T16:34:17;5.70;;;1.87;;
26080;SDS011;13991;51.174;4.438;2022-12-19T16:36:45;10.87;;;2.17;;
26080;SDS011;13991;51.174;4.438;2022-12-19T16:39:11;6.47;;;2.37;;
26080;SDS011;13991;51.174;4.438;2022-12-19T16:41:38;6.00;;;2.97;;
26080;SDS011;13991;51.174;4.438;2022-12-19T16:44:08;9.67;;;3.00;;
26080;SDS011;13991;51.174;4.438;2022-12-19T16:46:42;5.67;;;2.10;;
26080;SDS011;13991;51.174;4.438;2022-12-19T16:49:20;8.00;;;2.20;;
26080;SDS011;13991;51.174;4.438;2022-12-19T16:51:47;7.57;;;2.87;;
26080;SDS011;13991;51.174;4.438;2022-12-19T16:54:13;6.00;;;2.27;;
26080;SDS011;13991;51.174;4.438;2022-12-19T16:56:44;10.77;;;2.80;;
26080;SDS011;13991;51.174;4.438;2022-12-19T16:59:16;5.43;;;2.20;;
26080;SDS011;13991;51.174;4.438;2022-12-19T17:01:44;7.43;;;2.30;;
26080;SDS011;13991;51.174;4.438;2022-12-19T17:04:14;11.80;;;2.23;;
26080;SDS011;13991;51.174;4.438;2022-12-19T17:06:41;7.83;;;2.03;;
26080;SDS011;13991;51.174;4.438;2022-12-19T17:09:11;8.27;;;2.63;;
26080;SDS011;13991;51.174;4.438;2022-12-19T17:12:03;11.70;;;3.30;;